sensor_id;sensor_type;location;lat;lon;timestamp;P1;durP1;ratioP1;P2;durP2;ratioP2
54167;SDS011;68429;50.958;3.592;2023-04-24T00:02:14;15.40;;;10.10;;
54167;SDS011;68429;50.958;3.592;2023-04-24T00:04:40;15.85;;;9.15;;
54167;SDS011;68429;50.958;3.592;2023-04-24T00:07:09;14.13;;;9.63;;
54167;SDS011;68429;50.958;3.592;2023-04-24T00:09:36;16.42;;;9.50;;
54167;SDS011;68429;50.958;3.592;2023-04-24T00:12:01;16.25;;;9.75;;
54167;SDS011;68429;50.958;3.592;2023-04-24T00:14:29;14.88;;;9.70;;
54167;SDS011;68429;50.958;3.592;2023-04-24T00:16:55;14.32;;;8.93;;
54167;SDS011;68429;50.958;3.592;2023-04-24T00:19:21;15.25;;;9.82;;
54167;SDS011;68429;50.958;3.592;2023-04-24T00:21:47;15.02;;;9.52;;
54167;SDS011;68429;50.958;3.592;2023-04-24T00:24:15;13.38;;;9.07;;
54167;SDS011;68429;50.958;3.592;2023-04-24T00:26:41;16.08;;;9.85;;
54167;SDS011;68429;50.958;3.592;2023-04-24T00:29:07;11.15;;;7.50;;
54167;SDS011;68429;50.958;3.592;2023-04-24T00:31:33;8.20;;;6.18;;
54167;SDS011;68429;50.958;3.592;2023-04-24T00:34:01;7.65;;;6.25;;
54167;SDS011;68429;50.958;3.592;2023-04-24T00:36:28;6.82;;;5.63;;
54167;SDS011;68429;50.958;3.592;2023-04-24T00:38:54;5.65;;;4.90;;
54167;SDS011;68429;50.958;3.592;2023-04-24T00:41:20;8.63;;;5.38;;
54167;SDS011;68429;50.958;3.592;2023-04-24T00:43:47;5.05;;;4.43;;
54167;SDS011;68429;50.958;3.592;2023-04-24T00:46:13;5.35;;;4.57;;
54167;SDS011;68429;50.958;3.592;2023-04-24T00:48:39;8.38;;;5.03;;
54167;SDS011;68429;50.958;3.592;2023-04-24T00:51:05;7.78;;;5.32;;
54167;SDS011;68429;50.958;3.592;2023-04-24T00:53:31;5.00;;;4.50;;
54167;SDS011;68429;50.958;3.592;2023-04-24T00:55:57;6.28;;;5.45;;
54167;SDS011;68429;50.958;3.592;2023-04-24T00:58:24;6.68;;;5.03;;
54167;SDS011;68429;50.958;3.592;2023-04-24T01:00:52;6.05;;;4.88;;
54167;SDS011;68429;50.958;3.592;2023-04-24T01:03:22;5.55;;;4.65;;
54167;SDS011;68429;50.958;3.592;2023-04-24T01:05:51;8.02;;;5.03;;
54167;SDS011;68429;50.958;3.592;2023-04-24T01:08:19;6.18;;;4.25;;
54167;SDS011;68429;50.958;3.592;2023-04-24T01:10:45;6.65;;;4.40;;
54167;SDS011;68429;50.958;3.592;2023-04-24T01:13:12;6.80;;;4.10;;
54167;SDS011;68429;50.958;3.592;2023-04-24T01:15:38;4.82;;;4.32;;
54167;SDS011;68429;50.958;3.592;2023-04-24T01:18:04;4.80;;;4.28;;
54167;SDS011;68429;50.958;3.592;2023-04-24T01:20:31;5.70;;;5.10;;
54167;SDS011;68429;50.958;3.592;2023-04-24T01:22:57;7.80;;;6.32;;
54167;SDS011;68429;50.958;3.592;2023-04-24T01:25:24;6.80;;;5.32;;
54167;SDS011;68429;50.958;3.592;2023-04-24T01:27:52;5.93;;;5.33;;
54167;SDS011;68429;50.958;3.592;2023-04-24T01:30:17;11.60;;;6.55;;
54167;SDS011;68429;50.958;3.592;2023-04-24T01:32:43;8.25;;;6.63;;
54167;SDS011;68429;50.958;3.592;2023-04-24T01:35:10;9.23;;;7.07;;
54167;SDS011;68429;50.958;3.592;2023-04-24T01:37:36;10.25;;;7.57;;
54167;SDS011;68429;50.958;3.592;2023-04-24T01:40:05;13.18;;;8.05;;
54167;SDS011;68429;50.958;3.592;2023-04-24T01:42:31;9.50;;;7.80;;
54167;SDS011;68429;50.958;3.592;2023-04-24T01:44:57;10.55;;;8.05;;
54167;SDS011;68429;50.958;3.592;2023-04-24T01:47:24;9.93;;;8.75;;
54167;SDS011;68429;50.958;3.592;2023-04-24T01:49:50;13.48;;;9.82;;
54167;SDS011;68429;50.958;3.592;2023-04-24T01:52:16;15.45;;;11.18;;
54167;SDS011;68429;50.958;3.592;2023-04-24T01:54:43;15.48;;;11.20;;
54167;SDS011;68429;50.958;3.592;2023-04-24T01:57:09;14.68;;;11.20;;
54167;SDS011;68429;50.958;3.592;2023-04-24T01:59:35;18.33;;;13.10;;
54167;SDS011;68429;50.958;3.592;2023-04-24T02:02:02;16.92;;;12.02;;
54167;SDS011;68429;50.958;3.592;2023-04-24T02:04:28;16.45;;;12.43;;
54167;SDS011;68429;50.958;3.592;2023-04-24T02:06:54;17.58;;;11.45;;
54167;SDS011;68429;50.958;3.592;2023-04-24T02:09:19;17.13;;;12.52;;
54167;SDS011;68429;50.958;3.592;2023-04-24T02:11:45;18.55;;;11.63;;
54167;SDS011;68429;50.958;3.592;2023-04-24T02:14:11;19.10;;;13.40;;
54167;SDS011;68429;50.958;3.592;2023-04-24T02:16:37;19.67;;;11.25;;
54167;SDS011;68429;50.958;3.592;2023-04-24T02:19:03;19.33;;;12.68;;
54167;SDS011;68429;50.958;3.592;2023-04-24T02:21:29;18.85;;;12.77;;
54167;SDS011;68429;50.958;3.592;2023-04-24T02:23:56;15.15;;;12.07;;
54167;SDS011;68429;50.958;3.592;2023-04-24T02:26:22;18.73;;;13.70;;
54167;SDS011;68429;50.958;3.592;2023-04-24T02:28:47;15.95;;;12.40;;
54167;SDS011;68429;50.958;3.592;2023-04-24T02:31:13;14.38;;;10.38;;
54167;SDS011;68429;50.958;3.592;2023-04-24T02:33:39;17.08;;;11.90;;
54167;SDS011;68429;50.958;3.592;2023-04-24T02:36:05;15.07;;;10.25;;
54167;SDS011;68429;50.958;3.592;2023-04-24T02:38:30;19.83;;;13.77;;
54167;SDS011;68429;50.958;3.592;2023-04-24T02:40:56;18.00;;;12.30;;
54167;SDS011;68429;50.958;3.592;2023-04-24T02:43:22;15.13;;;10.52;;
54167;SDS011;68429;50.958;3.592;2023-04-24T02:45:48;9.73;;;7.90;;
54167;SDS011;68429;50.958;3.592;2023-04-24T02:48:14;14.18;;;7.95;;
54167;SDS011;68429;50.958;3.592;2023-04-24T02:50:39;11.65;;;7.63;;
54167;SDS011;68429;50.958;3.592;2023-04-24T02:53:05;10.88;;;6.78;;
54167;SDS011;68429;50.958;3.592;2023-04-24T02:55:31;11.25;;;7.57;;
54167;SDS011;68429;50.958;3.592;2023-04-24T02:57:57;12.55;;;7.22;;
54167;SDS011;68429;50.958;3.592;2023-04-24T03:00:23;15.13;;;6.85;;
54167;SDS011;68429;50.958;3.592;2023-04-24T03:02:48;6.78;;;5.05;;
54167;SDS011;68429;50.958;3.592;2023-04-24T03:05:14;12.40;;;5.43;;
54167;SDS011;68429;50.958;3.592;2023-04-24T03:07:40;8.85;;;5.88;;
54167;SDS011;68429;50.958;3.592;2023-04-24T03:10:06;12.43;;;5.85;;
54167;SDS011;68429;50.958;3.592;2023-04-24T03:12:32;13.45;;;5.28;;
54167;SDS011;68429;50.958;3.592;2023-04-24T03:14:58;10.55;;;5.60;;
54167;SDS011;68429;50.958;3.592;2023-04-24T03:17:24;11.18;;;6.28;;
54167;SDS011;68429;50.958;3.592;2023-04-24T03:19:50;6.85;;;5.22;;
54167;SDS011;68429;50.958;3.592;2023-04-24T03:22:15;9.45;;;5.38;;
54167;SDS011;68429;50.958;3.592;2023-04-24T03:24:41;8.75;;;5.15;;
54167;SDS011;68429;50.958;3.592;2023-04-24T03:27:07;10.55;;;5.30;;
54167;SDS011;68429;50.958;3.592;2023-04-24T03:29:32;9.25;;;6.47;;
54167;SDS011;68429;50.958;3.592;2023-04-24T03:31:58;7.88;;;6.13;;
54167;SDS011;68429;50.958;3.592;2023-04-24T03:34:24;15.27;;;9.25;;
54167;SDS011;68429;50.958;3.592;2023-04-24T03:36:50;12.70;;;8.15;;
54167;SDS011;68429;50.958;3.592;2023-04-24T03:39:15;16.08;;;9.25;;
54167;SDS011;68429;50.958;3.592;2023-04-24T03:41:41;17.95;;;8.70;;
54167;SDS011;68429;50.958;3.592;2023-04-24T03:44:07;16.80;;;9.38;;
54167;SDS011;68429;50.958;3.592;2023-04-24T03:46:32;19.95;;;11.18;;
54167;SDS011;68429;50.958;3.592;2023-04-24T03:48:58;15.75;;;10.25;;
54167;SDS011;68429;50.958;3.592;2023-04-24T03:51:24;16.90;;;10.70;;
54167;SDS011;68429;50.958;3.592;2023-04-24T03:53:50;23.58;;;12.38;;
54167;SDS011;68429;50.958;3.592;2023-04-24T03:56:16;18.77;;;10.75;;
54167;SDS011;68429;50.958;3.592;2023-04-24T03:58:42;26.13;;;12.82;;
54167;SDS011;68429;50.958;3.592;2023-04-24T04:01:07;20.90;;;12.18;;
54167;SDS011;68429;50.958;3.592;2023-04-24T04:03:33;25.83;;;13.73;;
54167;SDS011;68429;50.958;3.592;2023-04-24T04:05:59;20.55;;;13.25;;
54167;SDS011;68429;50.958;3.592;2023-04-24T04:08:24;22.38;;;12.15;;
54167;SDS011;68429;50.958;3.592;2023-04-24T04:10:50;17.63;;;12.32;;
54167;SDS011;68429;50.958;3.592;2023-04-24T04:13:16;20.80;;;13.32;;
54167;SDS011;68429;50.958;3.592;2023-04-24T04:15:41;20.48;;;12.80;;
54167;SDS011;68429;50.958;3.592;2023-04-24T04:18:07;26.63;;;13.38;;
54167;SDS011;68429;50.958;3.592;2023-04-24T04:20:33;16.67;;;11.25;;
54167;SDS011;68429;50.958;3.592;2023-04-24T04:22:59;29.10;;;12.57;;
54167;SDS011;68429;50.958;3.592;2023-04-24T04:25:24;23.40;;;11.90;;
54167;SDS011;68429;50.958;3.592;2023-04-24T04:27:50;21.30;;;11.68;;
54167;SDS011;68429;50.958;3.592;2023-04-24T04:30:17;22.15;;;11.35;;
54167;SDS011;68429;50.958;3.592;2023-04-24T04:32:43;23.77;;;12.30;;
54167;SDS011;68429;50.958;3.592;2023-04-24T04:35:09;18.83;;;10.40;;
54167;SDS011;68429;50.958;3.592;2023-04-24T04:37:35;15.27;;;10.10;;
54167;SDS011;68429;50.958;3.592;2023-04-24T04:40:01;23.55;;;11.60;;
54167;SDS011;68429;50.958;3.592;2023-04-24T04:42:36;20.80;;;10.25;;
54167;SDS011;68429;50.958;3.592;2023-04-24T04:45:05;21.97;;;10.97;;
54167;SDS011;68429;50.958;3.592;2023-04-24T04:47:33;17.10;;;9.38;;
54167;SDS011;68429;50.958;3.592;2023-04-24T04:49:59;21.55;;;9.05;;
54167;SDS011;68429;50.958;3.592;2023-04-24T04:52:25;25.38;;;10.95;;
54167;SDS011;68429;50.958;3.592;2023-04-24T04:54:51;14.38;;;9.02;;
54167;SDS011;68429;50.958;3.592;2023-04-24T04:57:17;19.67;;;10.40;;
54167;SDS011;68429;50.958;3.592;2023-04-24T04:59:43;15.07;;;10.45;;
54167;SDS011;68429;50.958;3.592;2023-04-24T05:02:08;21.60;;;10.15;;
54167;SDS011;68429;50.958;3.592;2023-04-24T05:04:34;20.75;;;10.68;;
54167;SDS011;68429;50.958;3.592;2023-04-24T05:07:00;20.33;;;10.48;;
54167;SDS011;68429;50.958;3.592;2023-04-24T05:09:26;12.73;;;8.70;;
54167;SDS011;68429;50.958;3.592;2023-04-24T05:11:54;19.02;;;9.57;;
54167;SDS011;68429;50.958;3.592;2023-04-24T05:14:20;13.93;;;9.57;;
54167;SDS011;68429;50.958;3.592;2023-04-24T05:16:45;18.10;;;10.73;;
54167;SDS011;68429;50.958;3.592;2023-04-24T05:19:11;22.92;;;10.63;;
54167;SDS011;68429;50.958;3.592;2023-04-24T05:21:39;17.73;;;8.68;;
54167;SDS011;68429;50.958;3.592;2023-04-24T05:24:05;18.05;;;11.15;;
54167;SDS011;68429;50.958;3.592;2023-04-24T05:26:31;15.18;;;10.80;;
54167;SDS011;68429;50.958;3.592;2023-04-24T05:28:56;17.38;;;11.27;;
54167;SDS011;68429;50.958;3.592;2023-04-24T05:31:22;22.52;;;12.45;;
54167;SDS011;68429;50.958;3.592;2023-04-24T05:33:48;16.98;;;10.43;;
54167;SDS011;68429;50.958;3.592;2023-04-24T05:36:13;22.02;;;11.73;;
54167;SDS011;68429;50.958;3.592;2023-04-24T05:38:39;20.80;;;12.63;;
54167;SDS011;68429;50.958;3.592;2023-04-24T05:41:05;18.85;;;11.35;;
54167;SDS011;68429;50.958;3.592;2023-04-24T05:43:31;27.52;;;12.23;;
54167;SDS011;68429;50.958;3.592;2023-04-24T05:45:56;24.70;;;13.07;;
54167;SDS011;68429;50.958;3.592;2023-04-24T05:48:22;25.65;;;12.70;;
54167;SDS011;68429;50.958;3.592;2023-04-24T05:50:48;22.13;;;14.35;;
54167;SDS011;68429;50.958;3.592;2023-04-24T05:53:14;30.92;;;14.48;;
54167;SDS011;68429;50.958;3.592;2023-04-24T05:55:39;30.65;;;14.68;;
54167;SDS011;68429;50.958;3.592;2023-04-24T05:58:05;26.63;;;14.10;;
54167;SDS011;68429;50.958;3.592;2023-04-24T06:00:31;26.35;;;13.70;;
54167;SDS011;68429;50.958;3.592;2023-04-24T06:02:57;24.23;;;13.15;;
54167;SDS011;68429;50.958;3.592;2023-04-24T06:05:23;20.13;;;12.25;;
54167;SDS011;68429;50.958;3.592;2023-04-24T06:07:49;33.55;;;14.10;;
54167;SDS011;68429;50.958;3.592;2023-04-24T06:10:15;21.75;;;12.63;;
54167;SDS011;68429;50.958;3.592;2023-04-24T06:12:41;22.85;;;10.73;;
54167;SDS011;68429;50.958;3.592;2023-04-24T06:15:07;25.25;;;12.50;;
54167;SDS011;68429;50.958;3.592;2023-04-24T06:17:33;24.33;;;12.98;;
54167;SDS011;68429;50.958;3.592;2023-04-24T06:19:58;23.38;;;11.85;;
54167;SDS011;68429;50.958;3.592;2023-04-24T06:22:24;24.80;;;12.82;;
54167;SDS011;68429;50.958;3.592;2023-04-24T06:24:50;19.95;;;11.18;;
54167;SDS011;68429;50.958;3.592;2023-04-24T06:27:15;25.98;;;11.57;;
54167;SDS011;68429;50.958;3.592;2023-04-24T06:29:41;24.80;;;10.95;;
54167;SDS011;68429;50.958;3.592;2023-04-24T06:32:07;18.23;;;10.23;;
54167;SDS011;68429;50.958;3.592;2023-04-24T06:34:32;21.90;;;10.68;;
54167;SDS011;68429;50.958;3.592;2023-04-24T06:36:59;29.80;;;10.32;;
54167;SDS011;68429;50.958;3.592;2023-04-24T06:39:25;18.42;;;10.30;;
54167;SDS011;68429;50.958;3.592;2023-04-24T06:41:50;16.27;;;8.73;;
54167;SDS011;68429;50.958;3.592;2023-04-24T06:44:16;14.63;;;7.72;;
54167;SDS011;68429;50.958;3.592;2023-04-24T06:46:42;25.13;;;8.13;;
54167;SDS011;68429;50.958;3.592;2023-04-24T06:49:07;13.10;;;7.47;;
54167;SDS011;68429;50.958;3.592;2023-04-24T06:51:33;16.80;;;8.02;;
54167;SDS011;68429;50.958;3.592;2023-04-24T06:53:59;16.42;;;8.00;;
54167;SDS011;68429;50.958;3.592;2023-04-24T06:56:25;20.17;;;8.20;;
54167;SDS011;68429;50.958;3.592;2023-04-24T06:58:51;21.80;;;9.00;;
54167;SDS011;68429;50.958;3.592;2023-04-24T07:01:17;25.40;;;8.90;;
54167;SDS011;68429;50.958;3.592;2023-04-24T07:03:42;15.80;;;6.90;;
54167;SDS011;68429;50.958;3.592;2023-04-24T07:06:09;22.65;;;7.75;;
54167;SDS011;68429;50.958;3.592;2023-04-24T07:08:38;18.25;;;8.77;;
54167;SDS011;68429;50.958;3.592;2023-04-24T07:11:04;15.98;;;7.80;;
54167;SDS011;68429;50.958;3.592;2023-04-24T07:13:30;15.63;;;7.10;;
54167;SDS011;68429;50.958;3.592;2023-04-24T07:15:56;14.00;;;7.15;;
54167;SDS011;68429;50.958;3.592;2023-04-24T07:18:22;17.42;;;6.93;;
54167;SDS011;68429;50.958;3.592;2023-04-24T07:20:48;22.38;;;6.50;;
54167;SDS011;68429;50.958;3.592;2023-04-24T07:23:15;19.02;;;6.55;;
54167;SDS011;68429;50.958;3.592;2023-04-24T07:25:41;15.57;;;6.05;;
54167;SDS011;68429;50.958;3.592;2023-04-24T07:28:07;17.88;;;6.63;;
54167;SDS011;68429;50.958;3.592;2023-04-24T07:30:33;15.77;;;4.93;;
54167;SDS011;68429;50.958;3.592;2023-04-24T07:32:59;16.55;;;5.47;;
54167;SDS011;68429;50.958;3.592;2023-04-24T07:35:25;16.13;;;5.82;;
54167;SDS011;68429;50.958;3.592;2023-04-24T07:37:52;13.05;;;5.25;;
54167;SDS011;68429;50.958;3.592;2023-04-24T07:40:18;12.30;;;5.20;;
54167;SDS011;68429;50.958;3.592;2023-04-24T07:42:45;12.20;;;5.82;;
54167;SDS011;68429;50.958;3.592;2023-04-24T07:45:14;14.15;;;4.85;;
54167;SDS011;68429;50.958;3.592;2023-04-24T07:47:43;12.95;;;4.18;;
54167;SDS011;68429;50.958;3.592;2023-04-24T07:50:10;13.93;;;4.25;;
54167;SDS011;68429;50.958;3.592;2023-04-24T07:52:36;8.30;;;3.20;;
54167;SDS011;68429;50.958;3.592;2023-04-24T07:55:02;6.57;;;3.70;;
54167;SDS011;68429;50.958;3.592;2023-04-24T07:57:28;6.68;;;2.58;;
54167;SDS011;68429;50.958;3.592;2023-04-24T07:59:54;10.35;;;3.92;;
54167;SDS011;68429;50.958;3.592;2023-04-24T08:02:20;7.30;;;2.97;;
54167;SDS011;68429;50.958;3.592;2023-04-24T08:04:51;6.25;;;2.78;;
54167;SDS011;68429;50.958;3.592;2023-04-24T08:07:19;8.40;;;3.78;;
54167;SDS011;68429;50.958;3.592;2023-04-24T08:09:45;10.82;;;3.50;;
54167;SDS011;68429;50.958;3.592;2023-04-24T08:12:11;8.55;;;3.15;;
54167;SDS011;68429;50.958;3.592;2023-04-24T08:14:37;12.65;;;3.65;;
54167;SDS011;68429;50.958;3.592;2023-04-24T08:17:02;8.05;;;3.20;;
54167;SDS011;68429;50.958;3.592;2023-04-24T08:19:28;6.45;;;2.97;;
54167;SDS011;68429;50.958;3.592;2023-04-24T08:21:54;11.10;;;4.10;;
54167;SDS011;68429;50.958;3.592;2023-04-24T08:24:22;10.10;;;4.00;;
54167;SDS011;68429;50.958;3.592;2023-04-24T08:26:48;16.67;;;5.25;;
54167;SDS011;68429;50.958;3.592;2023-04-24T08:29:18;8.75;;;2.80;;
54167;SDS011;68429;50.958;3.592;2023-04-24T08:31:44;8.82;;;3.10;;
54167;SDS011;68429;50.958;3.592;2023-04-24T08:34:10;10.13;;;3.25;;
54167;SDS011;68429;50.958;3.592;2023-04-24T08:36:36;9.32;;;2.92;;
54167;SDS011;68429;50.958;3.592;2023-04-24T08:39:02;7.78;;;3.38;;
54167;SDS011;68429;50.958;3.592;2023-04-24T08:41:28;7.65;;;2.95;;
54167;SDS011;68429;50.958;3.592;2023-04-24T08:43:54;11.63;;;3.83;;
54167;SDS011;68429;50.958;3.592;2023-04-24T08:46:23;11.50;;;3.22;;
54167;SDS011;68429;50.958;3.592;2023-04-24T08:48:50;7.18;;;3.17;;
54167;SDS011;68429;50.958;3.592;2023-04-24T08:51:17;8.20;;;3.03;;
54167;SDS011;68429;50.958;3.592;2023-04-24T08:53:43;11.00;;;3.92;;
54167;SDS011;68429;50.958;3.592;2023-04-24T08:56:10;14.95;;;3.92;;
54167;SDS011;68429;50.958;3.592;2023-04-24T08:58:37;5.88;;;2.90;;
54167;SDS011;68429;50.958;3.592;2023-04-24T09:01:04;6.60;;;3.17;;
54167;SDS011;68429;50.958;3.592;2023-04-24T09:03:30;7.13;;;2.97;;
54167;SDS011;68429;50.958;3.592;2023-04-24T09:05:58;7.82;;;2.60;;
54167;SDS011;68429;50.958;3.592;2023-04-24T09:08:25;11.25;;;3.17;;
54167;SDS011;68429;50.958;3.592;2023-04-24T09:10:51;9.77;;;3.30;;
54167;SDS011;68429;50.958;3.592;2023-04-24T09:13:18;8.02;;;3.40;;
54167;SDS011;68429;50.958;3.592;2023-04-24T09:15:45;8.57;;;3.05;;
54167;SDS011;68429;50.958;3.592;2023-04-24T09:18:11;9.65;;;3.42;;
54167;SDS011;68429;50.958;3.592;2023-04-24T09:23:29;5.88;;;2.83;;
54167;SDS011;68429;50.958;3.592;2023-04-24T09:25:55;4.57;;;3.05;;
54167;SDS011;68429;50.958;3.592;2023-04-24T09:28:25;4.82;;;3.30;;
54167;SDS011;68429;50.958;3.592;2023-04-24T09:31:08;7.35;;;3.42;;
54167;SDS011;68429;50.958;3.592;2023-04-24T09:33:39;9.88;;;3.15;;
54167;SDS011;68429;50.958;3.592;2023-04-24T09:36:05;5.43;;;2.97;;
54167;SDS011;68429;50.958;3.592;2023-04-24T09:38:35;7.95;;;3.13;;
54167;SDS011;68429;50.958;3.592;2023-04-24T09:41:02;7.07;;;3.65;;
54167;SDS011;68429;50.958;3.592;2023-04-24T09:43:29;9.93;;;4.57;;
54167;SDS011;68429;50.958;3.592;2023-04-24T09:45:56;4.68;;;2.50;;
54167;SDS011;68429;50.958;3.592;2023-04-24T09:48:30;7.50;;;3.72;;
54167;SDS011;68429;50.958;3.592;2023-04-24T09:50:57;9.65;;;3.42;;
54167;SDS011;68429;50.958;3.592;2023-04-24T09:53:26;7.13;;;3.17;;
54167;SDS011;68429;50.958;3.592;2023-04-24T09:55:52;5.30;;;2.92;;
54167;SDS011;68429;50.958;3.592;2023-04-24T09:58:18;7.65;;;3.40;;
54167;SDS011;68429;50.958;3.592;2023-04-24T10:00:53;11.27;;;2.95;;
54167;SDS011;68429;50.958;3.592;2023-04-24T10:03:19;11.43;;;3.60;;
54167;SDS011;68429;50.958;3.592;2023-04-24T10:05:46;10.88;;;3.13;;
54167;SDS011;68429;50.958;3.592;2023-04-24T10:08:12;7.05;;;3.85;;
54167;SDS011;68429;50.958;3.592;2023-04-24T10:10:39;6.72;;;3.20;;
54167;SDS011;68429;50.958;3.592;2023-04-24T10:13:07;10.00;;;4.57;;
54167;SDS011;68429;50.958;3.592;2023-04-24T10:15:34;6.78;;;3.58;;
54167;SDS011;68429;50.958;3.592;2023-04-24T10:18:00;7.10;;;3.47;;
54167;SDS011;68429;50.958;3.592;2023-04-24T10:20:27;6.88;;;3.50;;
54167;SDS011;68429;50.958;3.592;2023-04-24T10:22:56;6.18;;;3.67;;
54167;SDS011;68429;50.958;3.592;2023-04-24T10:25:23;9.48;;;3.80;;
54167;SDS011;68429;50.958;3.592;2023-04-24T10:27:51;6.75;;;3.53;;
54167;SDS011;68429;50.958;3.592;2023-04-24T10:30:18;7.78;;;4.13;;
54167;SDS011;68429;50.958;3.592;2023-04-24T10:32:45;7.70;;;3.72;;
54167;SDS011;68429;50.958;3.592;2023-04-24T10:35:14;8.43;;;3.33;;
54167;SDS011;68429;50.958;3.592;2023-04-24T10:37:46;9.40;;;3.15;;
54167;SDS011;68429;50.958;3.592;2023-04-24T10:40:18;9.70;;;3.85;;
54167;SDS011;68429;50.958;3.592;2023-04-24T10:42:51;10.55;;;3.92;;
54167;SDS011;68429;50.958;3.592;2023-04-24T10:45:19;8.93;;;4.03;;
54167;SDS011;68429;50.958;3.592;2023-04-24T10:50:21;7.90;;;4.32;;
54167;SDS011;68429;50.958;3.592;2023-04-24T10:52:47;9.20;;;4.40;;
54167;SDS011;68429;50.958;3.592;2023-04-24T10:55:16;7.73;;;4.00;;
54167;SDS011;68429;50.958;3.592;2023-04-24T10:58:02;8.20;;;3.45;;
54167;SDS011;68429;50.958;3.592;2023-04-24T11:00:29;6.50;;;3.22;;
54167;SDS011;68429;50.958;3.592;2023-04-24T11:02:54;8.35;;;3.90;;
54167;SDS011;68429;50.958;3.592;2023-04-24T11:05:22;5.65;;;3.33;;
54167;SDS011;68429;50.958;3.592;2023-04-24T11:08:11;10.77;;;3.72;;
54167;SDS011;68429;50.958;3.592;2023-04-24T11:10:47;9.23;;;3.60;;
54167;SDS011;68429;50.958;3.592;2023-04-24T11:13:22;7.80;;;3.10;;
54167;SDS011;68429;50.958;3.592;2023-04-24T11:18:41;12.55;;;3.55;;
54167;SDS011;68429;50.958;3.592;2023-04-24T11:21:18;3.78;;;2.33;;
54167;SDS011;68429;50.958;3.592;2023-04-24T11:23:44;7.15;;;2.80;;
54167;SDS011;68429;50.958;3.592;2023-04-24T11:26:12;6.90;;;3.25;;
54167;SDS011;68429;50.958;3.592;2023-04-24T11:28:48;4.28;;;2.67;;
54167;SDS011;68429;50.958;3.592;2023-04-24T11:31:33;4.53;;;2.70;;
54167;SDS011;68429;50.958;3.592;2023-04-24T11:34:07;6.03;;;2.90;;
54167;SDS011;68429;50.958;3.592;2023-04-24T11:36:34;5.20;;;2.67;;
54167;SDS011;68429;50.958;3.592;2023-04-24T11:39:01;5.45;;;2.20;;
54167;SDS011;68429;50.958;3.592;2023-04-24T11:41:27;5.55;;;2.80;;
54167;SDS011;68429;50.958;3.592;2023-04-24T11:43:54;6.97;;;2.60;;
54167;SDS011;68429;50.958;3.592;2023-04-24T11:46:21;4.45;;;2.17;;
54167;SDS011;68429;50.958;3.592;2023-04-24T11:48:47;2.90;;;1.85;;
54167;SDS011;68429;50.958;3.592;2023-04-24T11:51:13;6.20;;;2.15;;
54167;SDS011;68429;50.958;3.592;2023-04-24T11:53:39;4.63;;;2.45;;
54167;SDS011;68429;50.958;3.592;2023-04-24T11:56:05;5.68;;;2.50;;
54167;SDS011;68429;50.958;3.592;2023-04-24T11:58:37;10.70;;;2.47;;
54167;SDS011;68429;50.958;3.592;2023-04-24T12:01:04;3.30;;;2.05;;
54167;SDS011;68429;50.958;3.592;2023-04-24T12:03:30;3.42;;;1.60;;
54167;SDS011;68429;50.958;3.592;2023-04-24T12:06:09;5.82;;;2.10;;
54167;SDS011;68429;50.958;3.592;2023-04-24T12:08:36;4.60;;;2.00;;
54167;SDS011;68429;50.958;3.592;2023-04-24T12:11:03;4.68;;;2.40;;
54167;SDS011;68429;50.958;3.592;2023-04-24T12:13:32;4.25;;;2.00;;
54167;SDS011;68429;50.958;3.592;2023-04-24T12:15:58;4.32;;;1.98;;
54167;SDS011;68429;50.958;3.592;2023-04-24T12:18:24;3.95;;;1.70;;
54167;SDS011;68429;50.958;3.592;2023-04-24T12:20:50;4.35;;;1.95;;
54167;SDS011;68429;50.958;3.592;2023-04-24T12:23:16;4.82;;;2.40;;
54167;SDS011;68429;50.958;3.592;2023-04-24T12:25:59;5.03;;;2.00;;
54167;SDS011;68429;50.958;3.592;2023-04-24T12:28:34;4.13;;;1.93;;
54167;SDS011;68429;50.958;3.592;2023-04-24T12:31:01;4.32;;;2.10;;
54167;SDS011;68429;50.958;3.592;2023-04-24T12:33:27;3.50;;;1.90;;
54167;SDS011;68429;50.958;3.592;2023-04-24T12:35:53;3.50;;;1.80;;
54167;SDS011;68429;50.958;3.592;2023-04-24T12:38:22;2.75;;;1.58;;
54167;SDS011;68429;50.958;3.592;2023-04-24T12:41:12;2.67;;;1.52;;
54167;SDS011;68429;50.958;3.592;2023-04-24T12:43:37;3.42;;;1.58;;
54167;SDS011;68429;50.958;3.592;2023-04-24T12:46:03;5.10;;;1.90;;
54167;SDS011;68429;50.958;3.592;2023-04-24T12:48:29;4.22;;;1.73;;
54167;SDS011;68429;50.958;3.592;2023-04-24T12:50:59;3.08;;;1.50;;
54167;SDS011;68429;50.958;3.592;2023-04-24T12:53:28;4.47;;;1.60;;
54167;SDS011;68429;50.958;3.592;2023-04-24T12:55:57;4.72;;;1.48;;
54167;SDS011;68429;50.958;3.592;2023-04-24T12:58:23;2.20;;;1.13;;
54167;SDS011;68429;50.958;3.592;2023-04-24T13:00:49;3.00;;;1.00;;
54167;SDS011;68429;50.958;3.592;2023-04-24T13:03:15;4.72;;;1.35;;
54167;SDS011;68429;50.958;3.592;2023-04-24T13:05:42;3.08;;;1.10;;
54167;SDS011;68429;50.958;3.592;2023-04-24T13:08:07;2.63;;;1.00;;
54167;SDS011;68429;50.958;3.592;2023-04-24T13:10:33;3.00;;;1.10;;
54167;SDS011;68429;50.958;3.592;2023-04-24T13:12:59;1.63;;;0.80;;
54167;SDS011;68429;50.958;3.592;2023-04-24T13:15:25;1.52;;;1.15;;
54167;SDS011;68429;50.958;3.592;2023-04-24T13:17:51;5.05;;;1.10;;
54167;SDS011;68429;50.958;3.592;2023-04-24T13:20:17;3.78;;;1.33;;
54167;SDS011;68429;50.958;3.592;2023-04-24T13:22:43;3.33;;;1.08;;
54167;SDS011;68429;50.958;3.592;2023-04-24T13:25:09;2.38;;;0.90;;
54167;SDS011;68429;50.958;3.592;2023-04-24T13:27:35;3.67;;;1.15;;
54167;SDS011;68429;50.958;3.592;2023-04-24T13:30:02;2.05;;;1.00;;
54167;SDS011;68429;50.958;3.592;2023-04-24T13:32:29;1.52;;;1.02;;
54167;SDS011;68429;50.958;3.592;2023-04-24T13:34:54;2.38;;;1.25;;
54167;SDS011;68429;50.958;3.592;2023-04-24T13:37:21;2.17;;;1.10;;
54167;SDS011;68429;50.958;3.592;2023-04-24T13:39:47;0.95;;;0.80;;
54167;SDS011;68429;50.958;3.592;2023-04-24T13:42:13;1.75;;;0.60;;
54167;SDS011;68429;50.958;3.592;2023-04-24T13:44:39;1.48;;;0.77;;
54167;SDS011;68429;50.958;3.592;2023-04-24T13:47:05;2.05;;;1.00;;
54167;SDS011;68429;50.958;3.592;2023-04-24T13:49:31;2.72;;;0.82;;
54167;SDS011;68429;50.958;3.592;2023-04-24T13:51:56;2.13;;;0.90;;
54167;SDS011;68429;50.958;3.592;2023-04-24T13:54:22;3.10;;;0.75;;
54167;SDS011;68429;50.958;3.592;2023-04-24T13:56:50;4.80;;;0.70;;
54167;SDS011;68429;50.958;3.592;2023-04-24T13:59:16;2.53;;;0.70;;
54167;SDS011;68429;50.958;3.592;2023-04-24T14:01:42;2.08;;;0.57;;
54167;SDS011;68429;50.958;3.592;2023-04-24T14:04:09;2.88;;;0.73;;
54167;SDS011;68429;50.958;3.592;2023-04-24T14:06:36;3.60;;;1.20;;
54167;SDS011;68429;50.958;3.592;2023-04-24T14:09:01;2.22;;;0.65;;
54167;SDS011;68429;50.958;3.592;2023-04-24T14:11:27;4.68;;;0.73;;
54167;SDS011;68429;50.958;3.592;2023-04-24T14:13:54;2.45;;;0.63;;
54167;SDS011;68429;50.958;3.592;2023-04-24T14:16:23;0.57;;;0.45;;
54167;SDS011;68429;50.958;3.592;2023-04-24T14:18:49;2.00;;;0.73;;
54167;SDS011;68429;50.958;3.592;2023-04-24T14:21:15;3.00;;;0.70;;
54167;SDS011;68429;50.958;3.592;2023-04-24T14:23:41;1.15;;;0.77;;
54167;SDS011;68429;50.958;3.592;2023-04-24T14:26:07;1.95;;;1.08;;
54167;SDS011;68429;50.958;3.592;2023-04-24T14:28:33;1.95;;;0.80;;
54167;SDS011;68429;50.958;3.592;2023-04-24T14:30:58;2.00;;;0.93;;
54167;SDS011;68429;50.958;3.592;2023-04-24T14:33:24;2.33;;;0.55;;
54167;SDS011;68429;50.958;3.592;2023-04-24T14:35:50;7.65;;;0.88;;
54167;SDS011;68429;50.958;3.592;2023-04-24T14:38:15;1.73;;;0.98;;
54167;SDS011;68429;50.958;3.592;2023-04-24T14:40:41;1.58;;;0.77;;
54167;SDS011;68429;50.958;3.592;2023-04-24T14:43:07;2.30;;;0.63;;
54167;SDS011;68429;50.958;3.592;2023-04-24T14:45:32;6.28;;;0.80;;